Hewittsville, Illinois
Current Conditions -  °F | °C
As of 5:55 AM on Monday 24 Nov 2014 (Local Time) from KTAZ Reporting Station
Light Snow Light Snow  
Wind Chill: 22°   Ceiling: 800
Heat Index: 34°   Visibility: 4mi
Dew Point: 32°   Wind: 20mph
Humidity: 93%   Direction: 260°W
Pressure: 29.35"   Gusts: 29mph
Location:  39.5521°N, 89.3216°W
Report Text: KTAZ 241155Z AUTO 26017G25KT 4SM -SN BKN008 OVC011 01/00 A2935 RMK AO2 P0002
Loading
Personal Weather Stations






























Interactive Weather Map New forecast layout! Learn more

10-Day Weather Forecast

Advertisements
Track Severe Weather on mobile